PENO2: Grand Lake O' The Cherokees, Pensacola Dm

Data processed at Wed Jan 17 2018 23:42


All information presented herein is the property of the government of the United States of America and may be revised or deleted at any time without prior notice.
Dissemination of this information without the expressed written consent of the Public Affairs Office, Tulsa District U.S. Army Corps of Engineers is strictly prohibited.
These data are gathered electronically and, as presented, have not undergone any form of quality control. These data are not guaranteed to be valid or correct.
Go to home page.
Go to station list.

Upstream stations:

Downstream station:
Previous Day
Next Day
Current Day
    
SHEF ID:       PENO2     Lake O' the Cherokees at Langley
STATION TYPE:  RESERVOIR

               PRECIP ELEVATION   STORAGE    INFLOW   RELEASE  AIR-TEMP  WIND-DIRWIND-SPEED REL-HUMID SOLAR-RAD   VOLTAGE  BAT-LOAD
                   in        ft     ac-ft       cfs       cfs         F       deg       mph         %      W/m2      volt      volt
              Ccp-Rev   Ccp-Rev   Ccp-Rev  Regi-Rev  Regi-Rev   Ccp-Rev   Ccp-Rev   Ccp-Rev   Ccp-Rev   Ccp-Rev   Ccp-Rev   Ccp-Rev
(US/Central)
01/15 00:00      0.00    742.08   1395924         0         0     36.93    156.30      3.03     50.56      0.00     12.55     12.25
01/15 01:00      0.00    742.07   1395521         0         0     37.26    158.20      3.71     51.73      0.00     12.54     12.25
01/15 02:00      0.00    742.05   1394715       975         0     37.92    167.17      5.64     50.73      0.00     12.53     12.25
01/15 03:00      0.00    742.07   1395521       975         0     38.34    173.14      6.06     51.00      0.00     12.53     12.25
01/15 04:00      0.00    742.09   1396327      1951         0     38.71    175.59      5.52     51.22      0.00     12.53     12.25
01/15 05:00      0.00    742.09   1396327      2926         0     37.69    206.45      3.37     52.99      0.00     12.81     12.25
01/15 06:00      0.00    742.10   1396730      6004         0     36.63    237.78      2.42     56.98      0.00     13.48     13.21
01/15 07:00      0.00    742.11   1397133      5158         0     36.77    302.65      6.35     60.47      0.00     13.49     13.13
01/15 08:00      0.00    742.14   1398342      6133       761     36.23    355.92     12.56     86.36      0.00     13.53     13.05
01/15 09:00      0.00    742.14   1398342      6133       648     35.17    347.44     13.35     93.32      8.24     14.57     12.97
01/15 10:00      0.00    742.24   1402372      6133         0     31.66    347.43     19.58     94.55     38.63     12.92     12.65
01/15 11:00      0.00    742.26   1403178      3055         0     27.70    343.64     18.82     93.90     99.94     12.87     12.65
01/15 12:00      0.00    742.17   1399551      2926         0     24.35    337.21     17.23     88.42    108.83     12.83     12.57
01/15 13:00      0.00    742.18   1399954      1951         0     21.83    337.36     19.06     87.23     86.04     12.80     12.57
01/15 14:00      0.00    742.21   1401163       975         0     21.24    331.20     17.84     78.46     75.27     12.78     12.49
01/15 15:00      0.00    742.18   1399954         0         0     19.13    324.68     17.26     73.99     91.60     12.76     12.49
01/15 16:00      0.00    742.17   1399551         0         0     18.63    331.43     17.78     73.28     50.17     12.74     12.49
01/15 17:00      0.00    742.14   1398342         0         0     17.98    331.66     16.26     72.33     10.81     12.72     12.41
01/15 18:00      0.00    742.15   1398745         0         0     17.85    333.07     14.08     72.74      0.00     12.70     12.41
01/15 19:00      0.00    742.14   1398342       867         0     17.47    328.01     11.26     72.20      0.00     12.69     12.41
01/15 20:00      0.00    742.14   1398342       988         0     17.49    326.37     11.82     71.95      0.00     12.67     12.41
01/15 21:00      0.00    742.18   1399954       988         0     17.87    331.96     15.60     72.63      0.00     12.63     12.41
01/15 22:00      0.00    742.19   1400357       988         0     17.13    335.04     16.21     75.75      0.00     12.64     12.41
01/15 23:00      0.00    742.17   1399551       988         0     15.55    330.92     16.72     76.92      0.00     12.62     12.33